Time;durP1;ratioP1;P1;durP2;ratioP2;P2;SDS_P1;SDS_P2;PMS_P1;PMS_P2;Temp;Humidity;BMP_temperature;BMP_pressure;BME280_temperature;BME280_humidity;BME280_pressure;Samples;Min_cycle;Max_cycle;Signal;HPM_P1;HPM_P2
2021/10/01 00:01:42;;;;;;;2.10;0.80;;;11.00;99.90;;;;;;5079001;28;20175;-92
2021/10/01 00:04:08;;;;;;;1.65;0.80;;;11.00;99.90;;;;;;5079783;28;20172;-92
2021/10/01 00:06:40;;;;;;;2.17;0.90;;;11.00;99.90;;;;;;5079835;28;20215;-91
2021/10/01 00:09:07;;;;;;;4.25;1.20;;;11.00;99.90;;;;;;5078995;28;20224;-91
2021/10/01 00:11:46;;;;;;;3.95;1.00;;;11.00;99.90;;;;;;5079459;28;20200;-91
2021/10/01 00:14:12;;;;;;;3.53;0.80;;;10.90;99.90;;;;;;5079192;28;20255;-91
2021/10/01 00:16:39;;;;;;;2.70;0.90;;;10.90;99.90;;;;;;5075183;28;20288;-92
2021/10/01 00:19:31;;;;;;;3.22;1.05;;;10.90;99.90;;;;;;5075467;28;20216;-90
2021/10/01 00:22:07;;;;;;;3.50;0.85;;;10.80;99.90;;;;;;5075421;28;20180;-91
2021/10/01 00:24:34;;;;;;;4.95;0.98;;;10.80;99.90;;;;;;5075490;28;20180;-91
2021/10/01 00:27:17;;;;;;;2.40;0.73;;;10.80;99.90;;;;;;5075584;28;20184;-91
2021/10/01 00:29:52;;;;;;;2.63;1.00;;;10.80;99.90;;;;;;5075103;28;20193;-91
2021/10/01 00:32:21;;;;;;;3.05;0.90;;;10.70;99.90;;;;;;5075294;28;20197;-91
2021/10/01 00:34:49;;;;;;;5.55;0.80;;;10.70;99.90;;;;;;5075457;28;20166;-91
2021/10/01 00:37:21;;;;;;;4.07;1.13;;;10.70;99.90;;;;;;5075367;28;20169;-90
2021/10/01 00:39:47;;;;;;;3.65;1.00;;;10.70;99.90;;;;;;5075090;28;20687;-92
2021/10/01 00:42:29;;;;;;;1.58;0.90;;;10.70;99.90;;;;;;5075314;28;20208;-91
2021/10/01 00:44:55;;;;;;;3.22;0.82;;;10.70;99.90;;;;;;5075384;28;20565;-91
2021/10/01 00:53:47;;;;;;;1.10;0.80;;;10.70;99.90;;;;;;5108805;22;20710;-93
2021/10/01 00:56:16;;;;;;;3.42;1.00;;;10.70;99.90;;;;;;4978617;28;20183;-93
2021/10/01 00:58:41;;;;;;;4.40;1.10;;;10.60;99.90;;;;;;4987443;28;20326;-93
2021/10/01 01:01:11;;;;;;;2.92;0.80;;;10.60;99.90;;;;;;4998053;28;20172;-95
2021/10/01 01:03:54;;;;;;;2.63;0.98;;;10.60;99.90;;;;;;4998088;28;20167;-92
2021/10/01 01:06:28;;;;;;;2.63;1.02;;;10.60;99.90;;;;;;4997886;28;20163;-92
2021/10/01 01:09:17;;;;;;;3.85;1.02;;;10.60;99.90;;;;;;4997900;28;20198;-93
2021/10/01 01:12:03;;;;;;;2.67;0.80;;;10.60;99.90;;;;;;4997763;28;20286;-93
2021/10/01 01:18:06;;;;;;;4.28;1.05;;;10.60;99.90;;;;;;5015517;28;20210;-92
2021/10/01 01:20:51;;;;;;;4.07;1.00;;;10.60;99.90;;;;;;4997748;28;20164;-92
2021/10/01 01:24:09;;;;;;;2.35;1.02;;;10.70;99.90;;;;;;4997616;28;20171;-93
2021/10/01 01:30:15;;;;;;;3.50;1.00;;;10.60;99.90;;;;;;5015067;28;20273;-93
2021/10/01 01:32:46;;;;;;;3.70;1.13;;;10.60;99.90;;;;;;4997769;28;20202;-93
2021/10/01 01:35:36;;;;;;;5.80;1.00;;;10.60;99.90;;;;;;4997765;28;20163;-92
2021/10/01 01:38:13;;;;;;;5.32;0.90;;;10.50;99.90;;;;;;4997196;28;20195;-91
2021/10/01 01:40:43;;;;;;;3.83;1.05;;;10.50;99.90;;;;;;4997261;28;20167;-95
2021/10/01 01:43:12;;;;;;;1.92;0.75;;;10.50;99.90;;;;;;4997300;28;20175;-93
2021/10/01 01:45:40;;;;;;;7.15;1.25;;;10.50;99.90;;;;;;4997252;28;20171;-93
2021/10/01 01:48:08;;;;;;;3.70;1.25;;;10.50;99.90;;;;;;4997302;28;20225;-93
2021/10/01 01:50:35;;;;;;;3.67;1.00;;;10.50;99.90;;;;;;4997224;28;20175;-92
2021/10/01 01:53:17;;;;;;;5.63;0.80;;;10.50;99.90;;;;;;4999363;28;20729;-92
2021/10/01 01:55:46;;;;;;;4.78;1.38;;;10.50;99.90;;;;;;4997517;28;20187;-93
2021/10/01 01:58:15;;;;;;;3.28;1.10;;;10.50;99.90;;;;;;4997083;28;20200;-92
2021/10/01 02:00:46;;;;;;;2.30;1.10;;;10.50;99.90;;;;;;4997215;28;20178;-93
2021/10/01 02:03:34;;;;;;;3.35;1.25;;;10.50;99.90;;;;;;4997237;28;20261;-93
2021/10/01 02:06:06;;;;;;;2.17;1.00;;;10.50;99.90;;;;;;5001593;28;20178;-94
2021/10/01 02:08:39;;;;;;;1.48;0.82;;;10.50;99.90;;;;;;5001133;28;20249;-92
2021/10/01 02:11:17;;;;;;;4.05;0.90;;;10.50;99.90;;;;;;5001259;28;20183;-93
2021/10/01 02:13:51;;;;;;;2.35;0.95;;;10.50;99.90;;;;;;5001052;28;20239;-94
2021/10/01 02:16:26;;;;;;;4.85;0.95;;;10.50;99.90;;;;;;5000825;28;20262;-93
2021/10/01 02:18:57;;;;;;;3.50;1.20;;;10.40;99.90;;;;;;5000899;28;20245;-94
2021/10/01 02:21:24;;;;;;;4.80;1.17;;;10.40;99.90;;;;;;5000891;28;20364;-93
2021/10/01 02:24:05;;;;;;;3.95;0.93;;;10.40;99.90;;;;;;5000923;28;20270;-94
2021/10/01 02:26:52;;;;;;;4.63;0.82;;;10.40;99.90;;;;;;5000993;28;20257;-92
2021/10/01 02:29:50;;;;;;;3.20;0.80;;;10.40;99.90;;;;;;5000455;28;20350;-93
2021/10/01 02:32:29;;;;;;;1.95;1.05;;;10.40;99.90;;;;;;4968426;28;20278;-92
2021/10/01 02:35:02;;;;;;;5.35;0.90;;;10.30;99.90;;;;;;5000697;28;20658;-93
2021/10/01 02:38:00;;;;;;;2.95;1.05;;;10.30;99.90;;;;;;5000586;28;20180;-92
2021/10/01 02:41:09;;;;;;;4.97;1.10;;;10.30;99.90;;;;;;5000439;28;20179;-92
2021/10/01 02:43:58;;;;;;;2.05;0.93;;;10.30;99.90;;;;;;5000405;28;20175;-91
2021/10/01 02:46:24;;;;;;;4.57;1.15;;;10.40;99.90;;;;;;5000387;28;20733;-94
2021/10/01 02:48:51;;;;;;;2.25;0.85;;;10.40;99.90;;;;;;5000231;28;20223;-93
2021/10/01 02:51:21;;;;;;;2.10;0.80;;;10.40;99.90;;;;;;5000194;28;20502;-93
2021/10/01 02:57:19;;;;;;;3.55;1.00;;;10.50;99.90;;;;;;5018039;28;20186;-91
2021/10/01 03:02:56;;;;;;;3.45;0.95;;;10.50;99.90;;;;;;5017814;28;20199;-93
2021/10/01 03:05:38;;;;;;;3.72;1.10;;;10.40;99.90;;;;;;5000082;28;20697;-93
2021/10/01 03:08:07;;;;;;;2.25;0.70;;;10.50;99.90;;;;;;4999847;28;20202;-93
2021/10/01 03:10:35;;;;;;;3.80;0.88;;;10.40;99.90;;;;;;5000098;28;20174;-91
2021/10/01 03:13:02;;;;;;;2.88;0.90;;;10.50;99.90;;;;;;4999926;28;20191;-93
2021/10/01 03:15:31;;;;;;;4.25;0.98;;;10.40;99.90;;;;;;4999766;28;20170;-92
2021/10/01 03:18:00;;;;;;;3.95;1.05;;;10.40;99.90;;;;;;4999775;28;20618;-93
2021/10/01 03:20:42;;;;;;;2.17;1.00;;;10.40;99.90;;;;;;4999704;28;20255;-92
2021/10/01 03:23:10;;;;;;;3.15;1.00;;;10.40;99.90;;;;;;4999789;28;20251;-93
2021/10/01 03:25:38;;;;;;;2.00;0.90;;;10.50;99.90;;;;;;4999596;28;20168;-92
2021/10/01 03:28:15;;;;;;;3.95;0.95;;;10.50;99.90;;;;;;4999630;28;20207;-92
2021/10/01 03:30:41;;;;;;;3.47;0.90;;;10.50;99.90;;;;;;4999609;28;20202;-94
2021/10/01 03:33:11;;;;;;;4.80;0.88;;;10.50;99.90;;;;;;4999462;28;20195;-94
2021/10/01 03:35:42;;;;;;;7.25;0.90;;;10.50;99.90;;;;;;4999509;28;20167;-91
2021/10/01 03:38:13;;;;;;;2.10;0.80;;;10.50;99.90;;;;;;4999344;28;20202;-93
2021/10/01 03:40:46;;;;;;;5.53;1.10;;;10.50;99.90;;;;;;4999509;28;20214;-93
2021/10/01 03:43:24;;;;;;;4.53;1.00;;;10.50;99.90;;;;;;4999458;28;20172;-94
2021/10/01 03:46:13;;;;;;;1.25;0.70;;;10.50;99.90;;;;;;4999474;28;20623;-93
2021/10/01 03:48:49;;;;;;;1.90;0.80;;;10.50;99.90;;;;;;4999602;28;20210;-93
2021/10/01 03:51:16;;;;;;;1.85;0.90;;;10.50;99.90;;;;;;4999142;28;20223;-93
2021/10/01 03:53:42;;;;;;;3.45;1.15;;;10.50;99.90;;;;;;5012900;28;20226;-93
2021/10/01 03:56:21;;;;;;;3.75;0.80;;;10.40;99.90;;;;;;5018904;28;20692;-91
2021/10/01 03:59:03;;;;;;;3.78;1.05;;;10.40;99.90;;;;;;5018965;28;20202;-93
2021/10/01 04:01:37;;;;;;;3.10;0.82;;;10.40;99.90;;;;;;5018936;28;20174;-93
2021/10/01 04:04:11;;;;;;;3.50;1.00;;;10.40;99.90;;;;;;5018855;28;20163;-93
2021/10/01 04:06:46;;;;;;;4.13;1.10;;;10.40;99.90;;;;;;5018723;28;20163;-93
2021/10/01 04:09:21;;;;;;;3.65;1.00;;;10.40;99.90;;;;;;5018750;28;20221;-91
2021/10/01 04:11:47;;;;;;;3.45;1.00;;;10.50;99.90;;;;;;5018617;28;20244;-92
2021/10/01 04:14:14;;;;;;;4.45;1.08;;;10.40;99.90;;;;;;5018942;28;20190;-93
2021/10/01 04:16:41;;;;;;;5.03;0.88;;;10.40;99.90;;;;;;5018649;28;20171;-92
2021/10/01 04:19:08;;;;;;;3.83;1.17;;;10.40;99.90;;;;;;5018413;28;20229;-94
2021/10/01 04:21:34;;;;;;;3.60;1.00;;;10.40;99.90;;;;;;5018328;28;20174;-92
2021/10/01 04:24:05;;;;;;;3.05;0.85;;;10.40;99.90;;;;;;5018285;28;20169;-93
2021/10/01 04:26:37;;;;;;;3.13;0.90;;;10.40;99.90;;;;;;5017571;28;20173;-92
2021/10/01 04:29:06;;;;;;;1.30;0.80;;;10.40;99.90;;;;;;5017999;28;20199;-93
2021/10/01 04:31:41;;;;;;;3.33;0.82;;;10.40;99.90;;;;;;5018055;28;20163;-94
2021/10/01 04:34:07;;;;;;;4.10;1.00;;;10.30;99.90;;;;;;5018065;28;20166;-94
2021/10/01 04:36:47;;;;;;;3.60;1.05;;;10.30;99.90;;;;;;5018005;28;20254;-92
2021/10/01 04:39:32;;;;;;;5.43;0.98;;;10.30;99.90;;;;;;5018199;28;20198;-92
2021/10/01 04:42:02;;;;;;;5.47;1.17;;;10.30;99.90;;;;;;5017848;28;20534;-92
2021/10/01 04:44:30;;;;;;;4.80;1.10;;;10.30;99.90;;;;;;5017767;28;20170;-93
2021/10/01 04:46:56;;;;;;;2.78;0.80;;;10.20;99.90;;;;;;5017884;28;20166;-92
2021/10/01 04:49:24;;;;;;;3.33;1.05;;;10.30;99.90;;;;;;5017808;28;20611;-93
2021/10/01 04:51:50;;;;;;;1.73;0.80;;;10.20;99.90;;;;;;5017697;28;20205;-92
2021/10/01 04:54:18;;;;;;;2.45;0.80;;;10.30;99.90;;;;;;4999226;28;20575;-92
2021/10/01 04:56:45;;;;;;;2.05;1.02;;;10.20;99.90;;;;;;4999258;28;20222;-92
2021/10/01 04:59:25;;;;;;;5.43;1.05;;;10.30;99.90;;;;;;4997999;28;20286;-93
2021/10/01 05:01:51;;;;;;;5.70;1.00;;;10.30;99.90;;;;;;4998022;28;20197;-90
2021/10/01 05:04:16;;;;;;;2.63;1.08;;;10.20;99.90;;;;;;4997798;28;20175;-91
2021/10/01 05:06:49;;;;;;;3.13;0.95;;;10.20;99.90;;;;;;4997825;28;20175;-93
2021/10/01 05:09:23;;;;;;;3.38;1.30;;;10.20;99.90;;;;;;4997518;28;20195;-90
2021/10/01 05:11:52;;;;;;;2.60;0.88;;;10.20;99.90;;;;;;4997651;28;20285;-92
2021/10/01 05:14:31;;;;;;;3.50;0.93;;;10.20;99.90;;;;;;4997870;28;20163;-94
2021/10/01 05:17:09;;;;;;;2.58;1.08;;;10.10;99.90;;;;;;4997738;28;20245;-91
2021/10/01 05:19:42;;;;;;;3.35;0.90;;;10.20;99.90;;;;;;4997546;28;20195;-92
2021/10/01 05:22:08;;;;;;;3.15;1.00;;;10.10;99.90;;;;;;4997514;28;20537;-94
2021/10/01 05:24:36;;;;;;;4.63;1.33;;;10.10;99.90;;;;;;4997371;28;20183;-92
2021/10/01 05:27:02;;;;;;;8.35;1.17;;;10.00;99.90;;;;;;4997399;28;20536;-92
2021/10/01 05:29:39;;;;;;;5.68;1.13;;;9.90;99.90;;;;;;4997621;28;20195;-93
2021/10/01 05:32:12;;;;;;;3.15;0.90;;;9.90;99.90;;;;;;4997355;28;20202;-91
2021/10/01 05:34:54;;;;;;;3.15;1.08;;;9.90;99.90;;;;;;4997413;28;20250;-94
2021/10/01 05:37:30;;;;;;;4.18;1.33;;;9.90;99.90;;;;;;4997227;28;20642;-93
2021/10/01 05:40:01;;;;;;;2.40;0.82;;;9.90;99.90;;;;;;4996252;28;20201;-91
2021/10/01 05:42:29;;;;;;;2.92;1.10;;;9.90;99.90;;;;;;4997291;28;20167;-92
2021/10/01 05:44:56;;;;;;;2.67;0.90;;;9.90;99.90;;;;;;4997008;28;20523;-93
2021/10/01 05:47:37;;;;;;;2.97;0.93;;;9.90;99.90;;;;;;4997001;28;20171;-92
2021/10/01 05:50:12;;;;;;;3.25;0.90;;;9.90;99.90;;;;;;4997092;28;20171;-92
2021/10/01 05:53:03;;;;;;;1.85;0.70;;;9.90;99.90;;;;;;5001753;28;20241;-92
2021/10/01 05:55:29;;;;;;;4.32;1.08;;;9.90;99.90;;;;;;5016587;28;20262;-91
2021/10/01 05:57:55;;;;;;;6.03;1.13;;;9.90;99.90;;;;;;5016614;28;20206;-89
2021/10/01 06:00:26;;;;;;;1.50;0.65;;;9.90;99.90;;;;;;5016706;28;20171;-93
2021/10/01 06:03:04;;;;;;;2.17;0.93;;;9.90;99.90;;;;;;5016769;28;20185;-90
2021/10/01 06:05:43;;;;;;;4.10;1.00;;;9.90;99.90;;;;;;5016668;28;20313;-92
2021/10/01 06:08:31;;;;;;;2.53;0.80;;;9.90;99.90;;;;;;5016741;28;20202;-91
2021/10/01 06:10:58;;;;;;;2.70;0.93;;;10.00;99.90;;;;;;5016642;28;20634;-92
2021/10/01 06:13:29;;;;;;;3.20;0.98;;;10.00;99.90;;;;;;5016544;28;20209;-91
2021/10/01 06:15:56;;;;;;;2.28;1.00;;;10.10;99.90;;;;;;5016789;28;20170;-94
2021/10/01 06:18:56;;;;;;;3.50;0.80;;;10.20;99.90;;;;;;5016552;28;20198;-93
2021/10/01 06:21:40;;;;;;;1.90;0.75;;;10.20;99.90;;;;;;5016412;28;20167;-93
2021/10/01 06:24:15;;;;;;;2.22;0.77;;;10.20;99.90;;;;;;5016709;28;20163;-92
2021/10/01 06:26:43;;;;;;;1.48;0.70;;;10.30;99.90;;;;;;5017043;28;20232;-93
2021/10/01 06:29:12;;;;;;;5.05;0.88;;;10.20;99.90;;;;;;5016568;28;20199;-91
2021/10/01 06:31:48;;;;;;;3.10;0.93;;;10.30;99.90;;;;;;5016645;28;20174;-92
2021/10/01 06:34:59;;;;;;;3.28;0.90;;;10.30;99.90;;;;;;5016600;28;20174;-93
2021/10/01 06:37:24;;;;;;;4.80;1.00;;;10.40;99.90;;;;;;5016548;28;20167;-92
2021/10/01 06:39:51;;;;;;;1.95;0.80;;;10.40;99.90;;;;;;5016434;28;20273;-93
2021/10/01 06:42:19;;;;;;;4.18;0.90;;;10.50;99.90;;;;;;5016544;28;20167;-93
2021/10/01 06:44:49;;;;;;;3.28;1.05;;;10.50;99.90;;;;;;5016383;28;20175;-92
2021/10/01 06:48:10;;;;;;;4.50;1.05;;;10.50;99.90;;;;;;5016448;28;20238;-92
2021/10/01 06:50:22;;;;;;;5.20;1.33;;;10.50;99.90;;;;;;5017640;28;20697;-93
2021/10/01 07:36:37;;;;;;;3.42;1.00;;;11.30;99.90;;;;;;5036873;28;20561;-94
2021/10/01 07:45:34;;;;;;;2.00;0.80;;;11.50;99.90;;;;;;5036771;28;20163;-92
2021/10/01 08:19:13;;;;;;;5.18;1.45;;;12.20;99.90;;;;;;5016377;28;20198;-93
2021/10/01 08:21:39;;;;;;;2.13;1.10;;;12.30;99.90;;;;;;4998791;28;20171;-93
2021/10/01 08:24:14;;;;;;;2.60;0.85;;;12.40;99.90;;;;;;4998789;28;20163;-93
2021/10/01 08:26:41;;;;;;;2.25;0.73;;;12.40;99.90;;;;;;4998611;28;20167;-93
2021/10/01 08:29:08;;;;;;;3.92;0.95;;;12.60;99.90;;;;;;4998578;28;20205;-92
2021/10/01 08:31:33;;;;;;;3.20;0.77;;;12.70;99.90;;;;;;4998669;28;20174;-92
2021/10/01 08:34:01;;;;;;;2.28;0.80;;;12.80;99.90;;;;;;4998629;28;20168;-93
2021/10/01 08:36:37;;;;;;;3.47;0.80;;;13.00;99.90;;;;;;4998281;28;20195;-93
2021/10/01 08:39:49;;;;;;;4.50;1.15;;;13.10;99.90;;;;;;4998374;28;20249;-95
2021/10/01 08:42:26;;;;;;;4.32;0.90;;;13.30;99.90;;;;;;4998156;28;20242;-92
2021/10/01 08:44:53;;;;;;;4.68;0.90;;;13.50;99.90;;;;;;4998262;28;20167;-92
2021/10/01 08:47:20;;;;;;;1.90;0.70;;;13.50;99.90;;;;;;4998388;28;20182;-92
2021/10/01 08:50:04;;;;;;;3.63;1.00;;;13.60;99.90;;;;;;4997980;28;20207;-93
2021/10/01 08:52:32;;;;;;;3.90;0.98;;;13.70;99.90;;;;;;5001641;28;20230;-94
2021/10/01 08:55:05;;;;;;;3.50;1.25;;;13.80;99.90;;;;;;5017717;28;20252;-95
2021/10/01 08:57:37;;;;;;;3.65;0.90;;;13.90;99.90;;;;;;5017748;28;20178;-92
2021/10/01 09:00:18;;;;;;;3.63;1.02;;;14.10;99.90;;;;;;5017996;28;20532;-94
2021/10/01 09:02:45;;;;;;;4.38;0.95;;;14.20;99.90;;;;;;5018275;28;20175;-92
2021/10/01 09:05:27;;;;;;;3.03;0.93;;;14.40;99.90;;;;;;5017727;28;20649;-93
2021/10/01 09:08:24;;;;;;;2.42;0.80;;;14.40;99.90;;;;;;5017432;28;20182;-93
2021/10/01 09:11:34;;;;;;;3.17;1.00;;;14.50;99.90;;;;;;5017735;28;20232;-93
2021/10/01 09:14:29;;;;;;;5.88;1.20;;;14.50;99.90;;;;;;5017570;28;20236;-93
2021/10/01 09:17:13;;;;;;;2.70;0.70;;;14.60;99.90;;;;;;5017696;28;20538;-94
2021/10/01 09:19:42;;;;;;;3.40;1.00;;;14.60;99.90;;;;;;5017638;28;20208;-92
2021/10/01 09:22:08;;;;;;;5.07;1.17;;;14.70;99.90;;;;;;5017634;28;20634;-94
2021/10/01 09:24:52;;;;;;;2.97;1.00;;;14.70;99.90;;;;;;5017675;28;20177;-94
2021/10/01 09:27:33;;;;;;;6.05;1.10;;;14.80;99.90;;;;;;5017998;28;20167;-92
2021/10/01 09:30:02;;;;;;;4.55;1.40;;;14.90;99.90;;;;;;5017755;28;20190;-93
2021/10/01 09:32:28;;;;;;;3.30;1.05;;;15.10;99.90;;;;;;5017464;28;20269;-93
2021/10/01 09:35:21;;;;;;;5.00;1.42;;;15.20;99.90;;;;;;5017586;28;20205;-93
2021/10/01 09:38:17;;;;;;;6.53;1.42;;;15.40;99.90;;;;;;5017378;28;20654;-92
2021/10/01 09:41:15;;;;;;;2.45;1.15;;;15.50;99.90;;;;;;5017412;28;20174;-93
2021/10/01 09:44:02;;;;;;;5.47;1.10;;;15.50;99.90;;;;;;5017243;28;20203;-93
2021/10/01 09:46:54;;;;;;;4.00;1.25;;;15.60;99.90;;;;;;5017193;28;20181;-91
2021/10/01 09:49:37;;;;;;;3.75;1.10;;;15.60;99.90;;;;;;5012480;28;20210;-94
2021/10/01 09:52:07;;;;;;;4.22;0.80;;;15.70;99.90;;;;;;5017073;28;20205;-94
2021/10/01 09:55:26;;;;;;;3.65;0.80;;;15.70;99.90;;;;;;5017233;28;20185;-92
2021/10/01 09:58:28;;;;;;;2.75;0.75;;;15.80;99.90;;;;;;5017021;28;20197;-94
2021/10/01 10:00:58;;;;;;;3.22;0.93;;;16.00;99.90;;;;;;5017506;28;20170;-94
2021/10/01 10:03:26;;;;;;;3.85;0.90;;;16.10;99.90;;;;;;5017178;28;20648;-94
2021/10/01 10:06:14;;;;;;;4.38;0.90;;;16.10;99.90;;;;;;5017200;28;20237;-94
2021/10/01 10:08:46;;;;;;;2.03;0.70;;;16.00;99.90;;;;;;5017246;28;20561;-93
2021/10/01 10:11:42;;;;;;;3.55;0.80;;;16.00;99.90;;;;;;5017458;28;20171;-94
2021/10/01 10:14:34;;;;;;;2.60;0.68;;;15.90;99.20;;;;;;5017008;28;20261;-94
2021/10/01 10:17:00;;;;;;;1.90;0.70;;;15.90;99.90;;;;;;5017304;28;20170;-93
2021/10/01 10:19:31;;;;;;;2.17;0.70;;;15.90;99.90;;;;;;5017294;28;20285;-94
2021/10/01 10:22:35;;;;;;;3.03;0.73;;;15.90;99.90;;;;;;5017053;28;20159;-93
2021/10/01 10:25:08;;;;;;;2.63;1.05;;;16.00;99.90;;;;;;5018424;28;20170;-94
2021/10/01 10:27:34;;;;;;;3.85;0.85;;;16.00;99.90;;;;;;5021369;28;20213;-92
2021/10/01 10:30:04;;;;;;;5.15;0.98;;;16.00;99.90;;;;;;5020588;28;20555;-93
2021/10/01 10:32:32;;;;;;;3.05;0.85;;;16.00;99.90;;;;;;5020862;28;20284;-92
2021/10/01 10:35:05;;;;;;;2.17;0.88;;;16.00;99.90;;;;;;5020521;28;20169;-95
2021/10/01 10:37:44;;;;;;;3.78;0.90;;;16.00;99.90;;;;;;5020584;28;20201;-94
2021/10/01 10:40:18;;;;;;;1.88;0.60;;;16.00;99.90;;;;;;5020412;28;20173;-94
2021/10/01 10:42:48;;;;;;;1.80;0.77;;;16.10;99.90;;;;;;5020094;28;20236;-93
2021/10/01 10:45:36;;;;;;;1.83;0.85;;;16.10;99.90;;;;;;5020273;28;20182;-94
2021/10/01 10:48:08;;;;;;;3.60;0.60;;;16.10;99.90;;;;;;5020243;28;20207;-94
2021/10/01 10:50:57;;;;;;;2.03;0.73;;;16.10;99.90;;;;;;5020031;28;20356;-95
2021/10/01 10:53:28;;;;;;;4.03;0.93;;;16.20;99.90;;;;;;5020011;28;20237;-94
2021/10/01 10:59:30;;;;;;;2.15;0.80;;;16.20;99.60;;;;;;5037545;28;20193;-94
2021/10/01 11:02:30;;;;;;;4.53;0.73;;;16.20;99.90;;;;;;5020214;28;20170;-94
2021/10/01 11:05:16;;;;;;;3.15;0.70;;;16.30;99.40;;;;;;5020200;28;20177;-93
2021/10/01 11:07:54;;;;;;;1.50;0.65;;;16.30;99.90;;;;;;5019660;28;20170;-94
2021/10/01 11:10:43;;;;;;;2.42;0.90;;;16.40;99.80;;;;;;5019920;28;20177;-92
2021/10/01 11:13:24;;;;;;;5.32;0.80;;;16.50;99.40;;;;;;5019622;28;20219;-93
2021/10/01 11:16:09;;;;;;;3.92;0.88;;;16.60;99.70;;;;;;5019741;28;20178;-94
2021/10/01 11:18:42;;;;;;;4.72;1.00;;;16.70;99.40;;;;;;5020105;28;20199;-94
2021/10/01 11:21:42;;;;;;;5.05;0.90;;;17.00;98.20;;;;;;5020372;28;20259;-93
2021/10/01 11:24:26;;;;;;;1.70;0.70;;;17.20;97.90;;;;;;5019615;28;20167;-95
2021/10/01 11:26:55;;;;;;;2.05;0.63;;;17.40;98.20;;;;;;5020524;28;20174;-94
2021/10/01 11:29:33;;;;;;;1.52;0.70;;;17.40;96.90;;;;;;5019474;28;20206;-92
2021/10/01 11:32:07;;;;;;;1.90;0.60;;;17.30;97.20;;;;;;5020260;28;20206;-94
2021/10/01 11:34:49;;;;;;;1.98;0.75;;;17.40;95.90;;;;;;5020228;28;20177;-94
2021/10/01 11:37:39;;;;;;;2.05;0.70;;;17.40;96.70;;;;;;5018960;28;20214;-94
2021/10/01 11:40:28;;;;;;;2.80;0.47;;;17.50;96.20;;;;;;5020632;28;20190;-94
2021/10/01 11:42:56;;;;;;;3.28;0.70;;;17.70;96.80;;;;;;5020064;28;20654;-95
2021/10/01 11:45:44;;;;;;;1.10;0.60;;;17.80;97.40;;;;;;5020085;28;20221;-94
2021/10/01 11:48:17;;;;;;;1.92;0.70;;;18.00;96.20;;;;;;5020682;28;20205;-93
2021/10/01 11:50:49;;;;;;;6.03;0.80;;;18.00;95.50;;;;;;5020020;28;20182;-94
2021/10/01 11:54:03;;;;;;;2.10;0.50;;;17.90;95.40;;;;;;5020612;28;20229;-95
2021/10/01 11:56:34;;;;;;;2.30;0.55;;;17.90;96.40;;;;;;5019838;28;20166;-94
2021/10/01 11:59:12;;;;;;;4.90;0.68;;;18.00;95.50;;;;;;5020500;28;20198;-95
2021/10/01 12:01:57;;;;;;;4.25;0.95;;;18.10;96.30;;;;;;5019984;28;20543;-93
2021/10/01 12:04:43;;;;;;;5.50;0.65;;;18.20;94.10;;;;;;5019237;28;20221;-93
2021/10/01 12:07:13;;;;;;;2.45;0.50;;;18.20;88.40;;;;;;5019247;28;20174;-95
2021/10/01 12:10:18;;;;;;;2.28;0.60;;;18.20;85.80;;;;;;5019165;28;20217;-94
2021/10/01 12:13:02;;;;;;;0.95;0.50;;;18.20;83.70;;;;;;5019085;28;20557;-95
2021/10/01 12:15:54;;;;;;;1.65;0.50;;;18.20;85.10;;;;;;5018760;28;20170;-95
2021/10/01 12:18:28;;;;;;;2.88;0.70;;;18.20;83.50;;;;;;5019326;28;20221;-94
2021/10/01 12:20:58;;;;;;;3.05;0.57;;;18.20;83.90;;;;;;5018846;28;20217;-94
2021/10/01 12:23:41;;;;;;;0.93;0.40;;;18.20;83.80;;;;;;5018580;28;20167;-93
2021/10/01 12:26:36;;;;;;;1.30;0.50;;;18.20;84.00;;;;;;5018908;28;20653;-93
2021/10/01 12:29:23;;;;;;;1.67;0.60;;;18.20;83.90;;;;;;5018630;28;20249;-94
2021/10/01 12:31:56;;;;;;;1.55;0.50;;;18.20;83.30;;;;;;5018357;28;20167;-94
2021/10/01 12:34:41;;;;;;;0.50;0.50;;;18.10;84.20;;;;;;5019029;28;20159;-96
2021/10/01 12:37:30;;;;;;;2.15;0.60;;;18.20;85.60;;;;;;5019162;28;20245;-93
2021/10/01 12:40:03;;;;;;;2.75;0.75;;;18.20;84.20;;;;;;5018670;28;20222;-95
2021/10/01 12:42:32;;;;;;;2.55;0.50;;;18.30;87.70;;;;;;5018233;28;20166;-96
2021/10/01 12:45:13;;;;;;;1.50;0.68;;;18.20;85.10;;;;;;5018213;28;20650;-95
2021/10/01 12:47:51;;;;;;;1.00;0.52;;;18.30;84.80;;;;;;5018607;28;20249;-94
2021/10/01 12:50:33;;;;;;;1.00;0.55;;;18.30;86.40;;;;;;5018282;28;20167;-93
2021/10/01 12:53:03;;;;;;;2.67;0.57;;;18.30;84.90;;;;;;5018798;28;20656;-95
2021/10/01 12:55:33;;;;;;;1.27;0.40;;;18.40;86.60;;;;;;5018391;28;20178;-93
2021/10/01 12:58:16;;;;;;;1.83;0.65;;;18.50;85.00;;;;;;5018123;28;20198;-93
2021/10/01 13:00:44;;;;;;;2.50;0.63;;;18.50;84.30;;;;;;5018265;28;20181;-93
2021/10/01 13:07:16;;;;;;;1.33;0.40;;;18.60;84.80;;;;;;5035957;28;20154;-93
2021/10/01 13:09:54;;;;;;;2.28;0.50;;;18.60;85.00;;;;;;5017793;28;20221;-94
2021/10/01 13:13:12;;;;;;;0.98;0.50;;;18.60;83.70;;;;;;5018049;28;20253;-95
2021/10/01 13:15:57;;;;;;;1.40;0.70;;;18.60;83.80;;;;;;4998732;28;20512;-95
2021/10/01 13:18:36;;;;;;;1.88;0.50;;;18.70;84.30;;;;;;5019323;28;20245;-95
2021/10/01 13:21:12;;;;;;;2.60;0.52;;;18.70;84.20;;;;;;5018050;28;20185;-92
2021/10/01 13:23:53;;;;;;;2.20;0.57;;;18.80;84.80;;;;;;5018962;28;20236;-95
2021/10/01 13:26:21;;;;;;;2.38;0.60;;;18.90;84.30;;;;;;5018014;28;20198;-93
2021/10/01 13:29:02;;;;;;;1.88;0.50;;;18.90;84.00;;;;;;5018556;28;20240;-93
2021/10/01 13:31:42;;;;;;;3.10;0.80;;;19.00;83.30;;;;;;5035394;28;20154;-93
2021/10/01 13:34:17;;;;;;;2.95;0.60;;;18.90;82.10;;;;;;5018275;28;20249;-93
2021/10/01 13:36:46;;;;;;;1.58;0.63;;;18.90;81.90;;;;;;5034958;28;20185;-93
2021/10/01 13:39:13;;;;;;;1.35;0.50;;;18.90;82.60;;;;;;5034528;28;20258;-94
2021/10/01 13:41:42;;;;;;;4.50;0.80;;;18.90;81.90;;;;;;5035607;28;20257;-94
2021/10/01 13:44:11;;;;;;;1.92;0.60;;;19.00;83.40;;;;;;5035511;28;20173;-95
2021/10/01 13:46:37;;;;;;;1.15;0.60;;;19.00;81.60;;;;;;5018308;28;20167;-94
2021/10/01 13:49:02;;;;;;;2.28;0.63;;;19.00;82.60;;;;;;5036034;28;20226;-95
2021/10/01 13:51:29;;;;;;;0.73;0.50;;;19.00;82.00;;;;;;5037076;28;20158;-95
2021/10/01 13:54:09;;;;;;;0.88;0.50;;;19.00;82.00;;;;;;5035892;28;20237;-96
2021/10/01 13:56:35;;;;;;;1.23;0.35;;;19.00;82.30;;;;;;5035768;28;20610;-90
2021/10/01 13:59:07;;;;;;;1.55;0.60;;;19.00;82.60;;;;;;5033826;28;20244;-94
2021/10/01 14:01:50;;;;;;;2.88;0.57;;;19.00;82.30;;;;;;5035105;28;20266;-94
2021/10/01 14:04:35;;;;;;;1.52;0.60;;;18.90;81.30;;;;;;5033974;28;20700;-93
2021/10/01 14:07:01;;;;;;;3.92;0.73;;;18.90;82.80;;;;;;5017082;28;20170;-93
2021/10/01 14:10:11;;;;;;;1.77;0.60;;;18.90;80.40;;;;;;5034149;28;20743;-93
2021/10/01 14:12:47;;;;;;;2.35;0.60;;;18.80;80.30;;;;;;5017690;28;20194;-92
2021/10/01 14:15:17;;;;;;;0.88;0.50;;;18.80;80.30;;;;;;5034898;28;20163;-93
2021/10/01 14:17:45;;;;;;;1.45;0.60;;;18.80;80.70;;;;;;5018088;28;20163;-93
2021/10/01 14:20:23;;;;;;;2.22;0.60;;;18.70;80.80;;;;;;5018877;28;20210;-93
2021/10/01 14:22:51;;;;;;;1.70;0.60;;;18.60;78.80;;;;;;5017215;28;20175;-94
2021/10/01 14:25:22;;;;;;;1.42;0.57;;;18.50;81.00;;;;;;5017518;28;20171;-94
2021/10/01 14:27:49;;;;;;;0.77;0.50;;;18.40;80.60;;;;;;5018220;28;20198;-94
2021/10/01 14:30:32;;;;;;;3.05;0.60;;;18.30;80.80;;;;;;5017469;28;20201;-94
2021/10/01 14:33:02;;;;;;;2.13;0.40;;;18.30;82.30;;;;;;5016983;28;20206;-92
2021/10/01 14:35:30;;;;;;;1.17;0.60;;;18.20;82.50;;;;;;5017266;28;20163;-94
2021/10/01 14:38:15;;;;;;;4.38;0.65;;;18.20;82.30;;;;;;5017575;28;20257;-94
2021/10/01 14:40:53;;;;;;;1.48;0.63;;;18.30;81.20;;;;;;5016873;28;20217;-95
2021/10/01 14:43:26;;;;;;;1.25;0.50;;;18.20;78.90;;;;;;5033145;28;20178;-96
2021/10/01 14:45:59;;;;;;;2.65;0.90;;;18.20;80.40;;;;;;5018223;28;20192;-93
2021/10/01 14:48:32;;;;;;;1.35;0.68;;;18.10;81.00;;;;;;5017077;28;20198;-94
2021/10/01 14:51:04;;;;;;;1.35;0.73;;;18.00;80.80;;;;;;5017883;28;20623;-93
2021/10/01 14:53:39;;;;;;;2.10;0.68;;;18.00;81.60;;;;;;5033627;28;20239;-92
2021/10/01 14:56:06;;;;;;;2.38;0.40;;;17.90;81.90;;;;;;5033570;28;20261;-95
2021/10/01 14:58:34;;;;;;;1.25;0.63;;;17.90;82.30;;;;;;5033508;28;20201;-95
2021/10/01 15:01:08;;;;;;;0.85;0.60;;;17.80;81.60;;;;;;5033125;28;20182;-93
2021/10/01 15:03:38;;;;;;;2.63;0.50;;;17.90;83.20;;;;;;5032943;28;20631;-96
2021/10/01 15:06:06;;;;;;;1.27;0.60;;;17.90;83.80;;;;;;5016315;28;20175;-94
2021/10/01 15:09:02;;;;;;;2.63;0.60;;;17.90;85.00;;;;;;5016186;28;20286;-95
2021/10/01 15:11:38;;;;;;;3.50;0.70;;;17.80;85.50;;;;;;5017821;28;20580;-93
2021/10/01 15:14:05;;;;;;;1.30;0.40;;;17.80;85.00;;;;;;5036170;28;20201;-94
2021/10/01 15:16:45;;;;;;;2.00;0.60;;;17.80;86.50;;;;;;5036997;28;20167;-92
2021/10/01 15:19:21;;;;;;;1.42;0.60;;;17.70;85.80;;;;;;5036154;28;20200;-94
2021/10/01 15:21:48;;;;;;;2.75;0.63;;;17.70;86.50;;;;;;5019794;28;20166;-94
2021/10/01 15:24:19;;;;;;;1.20;0.60;;;17.70;85.50;;;;;;5036407;28;20166;-92